sensor_id;sensor_type;location;lat;lon;timestamp;temperature;humidity
796;DHT22;381;48.770;9.188;2023-06-14T00:04:59;19.70;52.40
796;DHT22;381;48.770;9.188;2023-06-14T00:10:02;19.70;52.10
796;DHT22;381;48.770;9.188;2023-06-14T00:15:07;19.70;53.10
796;DHT22;381;48.770;9.188;2023-06-14T00:20:11;19.60;52.60
796;DHT22;381;48.770;9.188;2023-06-14T00:25:13;19.60;53.40
796;DHT22;381;48.770;9.188;2023-06-14T00:30:17;19.60;53.10
796;DHT22;381;48.770;9.188;2023-06-14T00:35:19;19.50;53.60
796;DHT22;381;48.770;9.188;2023-06-14T00:40:21;19.40;54.10
796;DHT22;381;48.770;9.188;2023-06-14T00:45:25;19.30;53.30
796;DHT22;381;48.770;9.188;2023-06-14T00:50:27;19.20;54.20
796;DHT22;381;48.770;9.188;2023-06-14T00:55:30;19.20;53.20
796;DHT22;381;48.770;9.188;2023-06-14T01:00:34;19.10;53.30
796;DHT22;381;48.770;9.188;2023-06-14T01:05:36;19.00;53.90
796;DHT22;381;48.770;9.188;2023-06-14T01:10:45;19.00;53.90
796;DHT22;381;48.770;9.188;2023-06-14T01:15:52;18.90;54.30
796;DHT22;381;48.770;9.188;2023-06-14T01:20:56;18.90;53.10
796;DHT22;381;48.770;9.188;2023-06-14T01:26:01;18.80;53.00
796;DHT22;381;48.770;9.188;2023-06-14T01:31:06;18.70;54.30
796;DHT22;381;48.770;9.188;2023-06-14T01:36:09;18.70;54.60
796;DHT22;381;48.770;9.188;2023-06-14T01:41:13;18.60;53.80
796;DHT22;381;48.770;9.188;2023-06-14T01:46:16;18.60;53.50
796;DHT22;381;48.770;9.188;2023-06-14T01:51:18;18.60;54.10
796;DHT22;381;48.770;9.188;2023-06-14T01:56:22;18.50;54.30
796;DHT22;381;48.770;9.188;2023-06-14T02:01:24;18.50;54.50
796;DHT22;381;48.770;9.188;2023-06-14T02:06:27;18.50;54.50
796;DHT22;381;48.770;9.188;2023-06-14T02:11:31;18.40;55.20
796;DHT22;381;48.770;9.188;2023-06-14T02:16:33;18.40;55.40
796;DHT22;381;48.770;9.188;2023-06-14T02:21:36;18.30;54.30
796;DHT22;381;48.770;9.188;2023-06-14T02:26:41;18.30;55.20
796;DHT22;381;48.770;9.188;2023-06-14T02:31:43;18.20;55.20
796;DHT22;381;48.770;9.188;2023-06-14T02:36:47;18.20;56.80
796;DHT22;381;48.770;9.188;2023-06-14T02:41:51;18.20;56.30
796;DHT22;381;48.770;9.188;2023-06-14T02:46:55;18.20;56.80
796;DHT22;381;48.770;9.188;2023-06-14T02:51:57;18.10;57.30
796;DHT22;381;48.770;9.188;2023-06-14T02:57:00;18.10;57.00
796;DHT22;381;48.770;9.188;2023-06-14T03:02:03;18.10;57.50
796;DHT22;381;48.770;9.188;2023-06-14T03:07:07;18.00;57.20
796;DHT22;381;48.770;9.188;2023-06-14T03:12:14;18.00;57.60
796;DHT22;381;48.770;9.188;2023-06-14T03:17:16;18.00;57.30
796;DHT22;381;48.770;9.188;2023-06-14T03:22:21;18.00;57.90
796;DHT22;381;48.770;9.188;2023-06-14T03:27:25;18.00;57.70
796;DHT22;381;48.770;9.188;2023-06-14T03:32:30;17.90;57.50
796;DHT22;381;48.770;9.188;2023-06-14T03:37:34;17.80;57.80
796;DHT22;381;48.770;9.188;2023-06-14T03:42:38;17.80;57.20
796;DHT22;381;48.770;9.188;2023-06-14T03:47:40;17.80;57.80
796;DHT22;381;48.770;9.188;2023-06-14T03:52:43;17.70;57.70
796;DHT22;381;48.770;9.188;2023-06-14T03:57:47;17.70;58.40
796;DHT22;381;48.770;9.188;2023-06-14T04:02:52;17.70;58.60
796;DHT22;381;48.770;9.188;2023-06-14T04:07:54;17.70;59.00
796;DHT22;381;48.770;9.188;2023-06-14T04:12:59;17.70;59.10
796;DHT22;381;48.770;9.188;2023-06-14T04:18:01;17.70;58.90
796;DHT22;381;48.770;9.188;2023-06-14T04:23:12;17.70;59.50
796;DHT22;381;48.770;9.188;2023-06-14T04:28:17;17.70;59.30
796;DHT22;381;48.770;9.188;2023-06-14T04:33:20;17.70;60.00
796;DHT22;381;48.770;9.188;2023-06-14T04:38:23;17.80;59.50
796;DHT22;381;48.770;9.188;2023-06-14T04:43:29;17.80;60.00
796;DHT22;381;48.770;9.188;2023-06-14T04:48:32;17.80;60.50
796;DHT22;381;48.770;9.188;2023-06-14T04:53:35;17.80;61.70
796;DHT22;381;48.770;9.188;2023-06-14T04:58:39;17.90;61.40
796;DHT22;381;48.770;9.188;2023-06-14T05:03:42;17.90;61.20
796;DHT22;381;48.770;9.188;2023-06-14T05:08:46;17.90;61.70
796;DHT22;381;48.770;9.188;2023-06-14T05:13:49;18.00;61.10
796;DHT22;381;48.770;9.188;2023-06-14T05:18:53;18.00;61.50
796;DHT22;381;48.770;9.188;2023-06-14T05:23:55;18.10;61.50
796;DHT22;381;48.770;9.188;2023-06-14T05:28:59;18.20;60.80
796;DHT22;381;48.770;9.188;2023-06-14T05:34:02;18.30;59.70
796;DHT22;381;48.770;9.188;2023-06-14T05:39:04;18.40;61.10
796;DHT22;381;48.770;9.188;2023-06-14T05:44:09;18.50;61.20
796;DHT22;381;48.770;9.188;2023-06-14T05:49:11;18.70;59.90
796;DHT22;381;48.770;9.188;2023-06-14T05:54:13;18.80;60.50
796;DHT22;381;48.770;9.188;2023-06-14T05:59:17;18.90;60.30
796;DHT22;381;48.770;9.188;2023-06-14T06:04:19;19.00;58.90
796;DHT22;381;48.770;9.188;2023-06-14T06:09:21;19.10;60.10
796;DHT22;381;48.770;9.188;2023-06-14T06:14:24;19.20;59.70
796;DHT22;381;48.770;9.188;2023-06-14T06:19:27;19.30;59.00
796;DHT22;381;48.770;9.188;2023-06-14T06:24:29;19.40;57.60
796;DHT22;381;48.770;9.188;2023-06-14T06:29:32;19.50;58.00
796;DHT22;381;48.770;9.188;2023-06-14T06:34:34;19.60;58.00
796;DHT22;381;48.770;9.188;2023-06-14T06:39:36;19.80;57.10
796;DHT22;381;48.770;9.188;2023-06-14T06:44:40;20.00;57.80
796;DHT22;381;48.770;9.188;2023-06-14T06:49:42;20.40;56.00
796;DHT22;381;48.770;9.188;2023-06-14T06:54:44;20.70;55.90
796;DHT22;381;48.770;9.188;2023-06-14T06:59:48;21.10;55.30
796;DHT22;381;48.770;9.188;2023-06-14T07:04:50;21.40;54.40
796;DHT22;381;48.770;9.188;2023-06-14T07:09:52;21.70;53.80
796;DHT22;381;48.770;9.188;2023-06-14T07:19:58;22.40;52.70
796;DHT22;381;48.770;9.188;2023-06-14T07:25:01;22.90;52.90
796;DHT22;381;48.770;9.188;2023-06-14T07:30:06;23.40;51.50
796;DHT22;381;48.770;9.188;2023-06-14T07:35:09;23.90;51.20
796;DHT22;381;48.770;9.188;2023-06-14T07:40:12;24.40;50.80
796;DHT22;381;48.770;9.188;2023-06-14T07:45:15;24.90;50.00
796;DHT22;381;48.770;9.188;2023-06-14T07:50:17;25.40;48.30
796;DHT22;381;48.770;9.188;2023-06-14T07:55:20;25.80;47.20
796;DHT22;381;48.770;9.188;2023-06-14T08:00:23;26.20;47.70
796;DHT22;381;48.770;9.188;2023-06-14T08:05:26;26.60;47.30
796;DHT22;381;48.770;9.188;2023-06-14T08:10:28;27.00;45.70
796;DHT22;381;48.770;9.188;2023-06-14T08:15:31;27.30;45.00
796;DHT22;381;48.770;9.188;2023-06-14T08:20:34;27.50;46.00
796;DHT22;381;48.770;9.188;2023-06-14T08:25:37;27.90;45.90
796;DHT22;381;48.770;9.188;2023-06-14T08:30:41;28.20;45.80
796;DHT22;381;48.770;9.188;2023-06-14T08:35:44;28.50;45.30
796;DHT22;381;48.770;9.188;2023-06-14T08:40:48;28.80;45.50
796;DHT22;381;48.770;9.188;2023-06-14T08:45:58;29.10;44.90
796;DHT22;381;48.770;9.188;2023-06-14T08:51:03;29.20;45.00
796;DHT22;381;48.770;9.188;2023-06-14T08:56:05;29.30;44.80
796;DHT22;381;48.770;9.188;2023-06-14T09:01:10;29.40;45.00
796;DHT22;381;48.770;9.188;2023-06-14T09:06:15;29.70;43.50
796;DHT22;381;48.770;9.188;2023-06-14T09:11:18;29.90;43.60
796;DHT22;381;48.770;9.188;2023-06-14T09:16:21;30.20;43.10
796;DHT22;381;48.770;9.188;2023-06-14T09:21:24;30.50;43.10
796;DHT22;381;48.770;9.188;2023-06-14T09:26:26;30.80;42.20
796;DHT22;381;48.770;9.188;2023-06-14T09:31:30;31.20;42.60
796;DHT22;381;48.770;9.188;2023-06-14T09:36:33;31.80;40.30
796;DHT22;381;48.770;9.188;2023-06-14T09:41:36;32.50;39.30
796;DHT22;381;48.770;9.188;2023-06-14T09:46:40;33.00;40.70
796;DHT22;381;48.770;9.188;2023-06-14T09:51:43;34.00;39.20
796;DHT22;381;48.770;9.188;2023-06-14T09:56:47;35.10;36.70
796;DHT22;381;48.770;9.188;2023-06-14T10:01:51;36.20;35.80
796;DHT22;381;48.770;9.188;2023-06-14T10:06:53;37.50;34.40
796;DHT22;381;48.770;9.188;2023-06-14T10:11:56;37.30;34.80
796;DHT22;381;48.770;9.188;2023-06-14T10:17:04;36.50;35.80
796;DHT22;381;48.770;9.188;2023-06-14T10:22:12;35.70;35.50
796;DHT22;381;48.770;9.188;2023-06-14T10:27:16;34.30;35.50
796;DHT22;381;48.770;9.188;2023-06-14T10:32:26;32.80;36.00
796;DHT22;381;48.770;9.188;2023-06-14T10:37:28;31.60;37.40
796;DHT22;381;48.770;9.188;2023-06-14T10:42:32;30.70;39.70
796;DHT22;381;48.770;9.188;2023-06-14T10:47:35;30.10;40.20
796;DHT22;381;48.770;9.188;2023-06-14T10:52:39;29.60;41.80
796;DHT22;381;48.770;9.188;2023-06-14T10:57:43;29.20;41.00
796;DHT22;381;48.770;9.188;2023-06-14T11:13:46;27.80;42.80
796;DHT22;381;48.770;9.188;2023-06-14T11:18:49;27.40;42.80
796;DHT22;381;48.770;9.188;2023-06-14T11:23:52;27.10;42.90
796;DHT22;381;48.770;9.188;2023-06-14T11:28:56;26.80;42.20
796;DHT22;381;48.770;9.188;2023-06-14T11:34:00;26.60;41.30
796;DHT22;381;48.770;9.188;2023-06-14T11:39:03;26.20;43.00
796;DHT22;381;48.770;9.188;2023-06-14T11:44:07;25.80;42.80
796;DHT22;381;48.770;9.188;2023-06-14T11:49:11;25.70;43.90
796;DHT22;381;48.770;9.188;2023-06-14T11:54:13;25.60;43.60
796;DHT22;381;48.770;9.188;2023-06-14T11:59:15;25.50;41.70
796;DHT22;381;48.770;9.188;2023-06-14T12:04:26;25.50;42.90
796;DHT22;381;48.770;9.188;2023-06-14T12:09:28;25.50;42.70
796;DHT22;381;48.770;9.188;2023-06-14T12:14:30;25.50;43.20
796;DHT22;381;48.770;9.188;2023-06-14T12:19:41;25.50;43.30
796;DHT22;381;48.770;9.188;2023-06-14T12:24:44;25.60;44.00
796;DHT22;381;48.770;9.188;2023-06-14T12:29:58;25.70;42.10
796;DHT22;381;48.770;9.188;2023-06-14T12:35:02;25.60;43.30
796;DHT22;381;48.770;9.188;2023-06-14T12:40:05;25.50;43.20
796;DHT22;381;48.770;9.188;2023-06-14T12:45:09;25.40;43.60
796;DHT22;381;48.770;9.188;2023-06-14T12:50:13;25.40;42.20
796;DHT22;381;48.770;9.188;2023-06-14T12:55:16;25.40;43.50
796;DHT22;381;48.770;9.188;2023-06-14T13:00:19;25.30;44.50
796;DHT22;381;48.770;9.188;2023-06-14T13:05:24;25.40;44.00
796;DHT22;381;48.770;9.188;2023-06-14T13:10:26;25.40;43.30
796;DHT22;381;48.770;9.188;2023-06-14T13:15:28;25.40;43.30
796;DHT22;381;48.770;9.188;2023-06-14T13:20:32;25.30;43.00
796;DHT22;381;48.770;9.188;2023-06-14T13:25:34;25.30;43.50
796;DHT22;381;48.770;9.188;2023-06-14T13:30:36;25.40;43.60
796;DHT22;381;48.770;9.188;2023-06-14T13:35:40;25.50;43.40
796;DHT22;381;48.770;9.188;2023-06-14T13:40:42;25.60;43.20
796;DHT22;381;48.770;9.188;2023-06-14T13:45:44;25.70;44.50
796;DHT22;381;48.770;9.188;2023-06-14T13:50:47;25.80;42.90
796;DHT22;381;48.770;9.188;2023-06-14T13:55:50;25.60;44.40
796;DHT22;381;48.770;9.188;2023-06-14T14:00:53;25.50;44.80
796;DHT22;381;48.770;9.188;2023-06-14T14:05:56;25.40;43.60
796;DHT22;381;48.770;9.188;2023-06-14T14:10:59;25.40;43.80
796;DHT22;381;48.770;9.188;2023-06-14T14:16:01;25.30;44.90
796;DHT22;381;48.770;9.188;2023-06-14T14:21:05;25.50;44.60
796;DHT22;381;48.770;9.188;2023-06-14T14:26:07;25.60;44.50
796;DHT22;381;48.770;9.188;2023-06-14T14:31:09;25.80;44.50
796;DHT22;381;48.770;9.188;2023-06-14T14:36:13;26.00;44.80
796;DHT22;381;48.770;9.188;2023-06-14T14:41:15;26.10;45.10
796;DHT22;381;48.770;9.188;2023-06-14T14:46:17;26.10;44.90
796;DHT22;381;48.770;9.188;2023-06-14T14:51:20;26.00;44.30
796;DHT22;381;48.770;9.188;2023-06-14T14:56:23;25.90;44.40
796;DHT22;381;48.770;9.188;2023-06-14T15:01:26;25.80;44.50
796;DHT22;381;48.770;9.188;2023-06-14T15:06:30;25.60;44.50
796;DHT22;381;48.770;9.188;2023-06-14T15:11:32;25.50;44.60
796;DHT22;381;48.770;9.188;2023-06-14T15:16:34;25.40;44.20
796;DHT22;381;48.770;9.188;2023-06-14T15:21:37;25.50;44.80
796;DHT22;381;48.770;9.188;2023-06-14T15:26:40;25.50;45.20
796;DHT22;381;48.770;9.188;2023-06-14T15:31:44;25.60;45.50
796;DHT22;381;48.770;9.188;2023-06-14T15:36:49;25.60;44.90
796;DHT22;381;48.770;9.188;2023-06-14T15:41:51;25.60;45.30
796;DHT22;381;48.770;9.188;2023-06-14T15:46:53;25.50;45.50
796;DHT22;381;48.770;9.188;2023-06-14T15:51:57;25.50;44.70
796;DHT22;381;48.770;9.188;2023-06-14T15:56:59;25.50;45.30
796;DHT22;381;48.770;9.188;2023-06-14T16:02:01;25.40;44.60
796;DHT22;381;48.770;9.188;2023-06-14T16:07:05;25.20;46.00
796;DHT22;381;48.770;9.188;2023-06-14T16:12:08;25.10;45.60
796;DHT22;381;48.770;9.188;2023-06-14T16:17:10;25.00;44.90
796;DHT22;381;48.770;9.188;2023-06-14T16:22:14;25.00;46.00
796;DHT22;381;48.770;9.188;2023-06-14T16:27:16;25.00;45.90
796;DHT22;381;48.770;9.188;2023-06-14T16:32:19;24.90;46.90
796;DHT22;381;48.770;9.188;2023-06-14T16:37:22;24.90;46.30
796;DHT22;381;48.770;9.188;2023-06-14T16:42:24;24.90;46.40
796;DHT22;381;48.770;9.188;2023-06-14T16:47:27;24.80;47.00
796;DHT22;381;48.770;9.188;2023-06-14T16:52:30;24.80;46.80
796;DHT22;381;48.770;9.188;2023-06-14T16:57:32;24.80;47.20
796;DHT22;381;48.770;9.188;2023-06-14T17:02:34;24.70;47.30
796;DHT22;381;48.770;9.188;2023-06-14T17:07:39;24.80;46.70
796;DHT22;381;48.770;9.188;2023-06-14T17:12:41;24.80;47.50
796;DHT22;381;48.770;9.188;2023-06-14T17:17:43;24.80;47.10
796;DHT22;381;48.770;9.188;2023-06-14T17:22:46;24.80;47.10
796;DHT22;381;48.770;9.188;2023-06-14T17:27:49;24.80;46.70
796;DHT22;381;48.770;9.188;2023-06-14T17:32:52;24.70;47.70
796;DHT22;381;48.770;9.188;2023-06-14T17:37:56;24.70;48.10
796;DHT22;381;48.770;9.188;2023-06-14T17:42:58;24.60;48.80
796;DHT22;381;48.770;9.188;2023-06-14T17:48:00;24.60;47.50
796;DHT22;381;48.770;9.188;2023-06-14T17:53:04;24.50;48.60
796;DHT22;381;48.770;9.188;2023-06-14T17:58:06;24.50;48.30
796;DHT22;381;48.770;9.188;2023-06-14T18:03:08;24.50;48.40
796;DHT22;381;48.770;9.188;2023-06-14T18:08:13;24.30;51.00
796;DHT22;381;48.770;9.188;2023-06-14T18:13:18;24.10;51.00
796;DHT22;381;48.770;9.188;2023-06-14T18:18:20;23.90;49.70
796;DHT22;381;48.770;9.188;2023-06-14T18:23:24;23.90;49.60
796;DHT22;381;48.770;9.188;2023-06-14T18:28:26;23.90;50.80
796;DHT22;381;48.770;9.188;2023-06-14T18:33:28;23.90;50.50
796;DHT22;381;48.770;9.188;2023-06-14T18:38:31;23.90;50.70
796;DHT22;381;48.770;9.188;2023-06-14T18:43:33;23.80;51.10
796;DHT22;381;48.770;9.188;2023-06-14T18:48:35;23.80;50.40
796;DHT22;381;48.770;9.188;2023-06-14T18:53:39;23.70;49.70
796;DHT22;381;48.770;9.188;2023-06-14T18:58:42;23.60;50.30
796;DHT22;381;48.770;9.188;2023-06-14T19:03:44;23.60;50.90
796;DHT22;381;48.770;9.188;2023-06-14T19:08:47;23.50;50.40
796;DHT22;381;48.770;9.188;2023-06-14T19:13:49;23.50;52.20
796;DHT22;381;48.770;9.188;2023-06-14T19:18:52;23.40;52.00
796;DHT22;381;48.770;9.188;2023-06-14T19:23:55;23.30;52.90
796;DHT22;381;48.770;9.188;2023-06-14T19:28:57;23.30;51.90
796;DHT22;381;48.770;9.188;2023-06-14T19:33:59;23.20;51.40
796;DHT22;381;48.770;9.188;2023-06-14T19:39:03;23.20;53.00
796;DHT22;381;48.770;9.188;2023-06-14T19:44:05;23.10;52.60
796;DHT22;381;48.770;9.188;2023-06-14T19:49:07;23.00;53.50
796;DHT22;381;48.770;9.188;2023-06-14T19:54:10;22.90;53.70
796;DHT22;381;48.770;9.188;2023-06-14T19:59:13;22.80;52.70
796;DHT22;381;48.770;9.188;2023-06-14T20:04:15;22.60;53.00
796;DHT22;381;48.770;9.188;2023-06-14T20:09:18;22.50;53.70
796;DHT22;381;48.770;9.188;2023-06-14T20:14:20;22.30;54.10
796;DHT22;381;48.770;9.188;2023-06-14T20:19:23;22.20;54.30
796;DHT22;381;48.770;9.188;2023-06-14T20:24:26;22.10;54.50
796;DHT22;381;48.770;9.188;2023-06-14T20:29:28;21.90;55.10
796;DHT22;381;48.770;9.188;2023-06-14T20:34:30;21.80;54.90
796;DHT22;381;48.770;9.188;2023-06-14T20:39:34;21.70;55.30
796;DHT22;381;48.770;9.188;2023-06-14T20:44:36;21.60;56.50
796;DHT22;381;48.770;9.188;2023-06-14T20:49:41;21.50;56.00
796;DHT22;381;48.770;9.188;2023-06-14T20:54:46;21.40;55.90
796;DHT22;381;48.770;9.188;2023-06-14T20:59:48;21.40;56.20
796;DHT22;381;48.770;9.188;2023-06-14T21:04:50;21.40;56.30
796;DHT22;381;48.770;9.188;2023-06-14T21:09:54;21.30;56.50
796;DHT22;381;48.770;9.188;2023-06-14T21:14:56;21.20;56.50
796;DHT22;381;48.770;9.188;2023-06-14T21:19:58;21.10;57.10
796;DHT22;381;48.770;9.188;2023-06-14T21:25:01;21.10;57.20
796;DHT22;381;48.770;9.188;2023-06-14T21:30:04;21.00;57.30
796;DHT22;381;48.770;9.188;2023-06-14T21:35:07;21.00;56.40
796;DHT22;381;48.770;9.188;2023-06-14T21:40:12;21.00;56.70
796;DHT22;381;48.770;9.188;2023-06-14T21:45:15;20.90;56.70
796;DHT22;381;48.770;9.188;2023-06-14T21:50:17;20.80;56.40
796;DHT22;381;48.770;9.188;2023-06-14T21:55:21;20.80;56.80
796;DHT22;381;48.770;9.188;2023-06-14T22:00:24;20.70;56.50
796;DHT22;381;48.770;9.188;2023-06-14T22:05:26;20.60;57.20
796;DHT22;381;48.770;9.188;2023-06-14T22:10:29;20.60;57.10
796;DHT22;381;48.770;9.188;2023-06-14T22:15:32;20.50;57.20
796;DHT22;381;48.770;9.188;2023-06-14T22:20:35;20.50;57.40
796;DHT22;381;48.770;9.188;2023-06-14T22:25:39;20.40;56.80
796;DHT22;381;48.770;9.188;2023-06-14T22:30:42;20.40;57.00
796;DHT22;381;48.770;9.188;2023-06-14T22:35:45;20.30;56.80
796;DHT22;381;48.770;9.188;2023-06-14T22:40:48;20.20;57.60
796;DHT22;381;48.770;9.188;2023-06-14T22:45:51;20.10;57.50
796;DHT22;381;48.770;9.188;2023-06-14T22:50:55;20.10;58.00
796;DHT22;381;48.770;9.188;2023-06-14T22:55:59;20.10;58.00
796;DHT22;381;48.770;9.188;2023-06-14T23:01:01;20.10;57.80
796;DHT22;381;48.770;9.188;2023-06-14T23:06:03;20.10;58.00
796;DHT22;381;48.770;9.188;2023-06-14T23:11:09;20.00;57.30
796;DHT22;381;48.770;9.188;2023-06-14T23:16:13;20.00;58.00
796;DHT22;381;48.770;9.188;2023-06-14T23:21:16;20.00;57.60
796;DHT22;381;48.770;9.188;2023-06-14T23:26:20;19.90;57.40
796;DHT22;381;48.770;9.188;2023-06-14T23:31:25;19.80;57.90
796;DHT22;381;48.770;9.188;2023-06-14T23:36:28;19.80;58.00
796;DHT22;381;48.770;9.188;2023-06-14T23:41:33;19.70;58.20
796;DHT22;381;48.770;9.188;2023-06-14T23:46:36;19.70;58.30
796;DHT22;381;48.770;9.188;2023-06-14T23:51:38;19.70;58.40
796;DHT22;381;48.770;9.188;2023-06-14T23:56:43;19.70;58.70
